WZZ58KY LMML-LWSK
Flight info
| Callsign | WZZ58KY |
|---|---|
| Flight time | 1h 25m |
| Altitude | 36000 |
| Route | VESOD DCT INROF DCT RUTOM/N0451F370 DCT KAS/N0446F360 UN731 BITLA/N0368F190 P859 PEP |
| Aircraft | A321/M-SDE3FGHIRWY/LB1 |
Departure
| Time | 2026-04-24 15:12 |
|---|---|
| Airport | Malta International Airport (LMML) |
Arrival
| Time | 2026-04-24 16:38 |
|---|---|
| Airport | Skopje International Airport (LWSK) |
| Time | Latitude | Longitude | Altitude | Speed | Heading |
|---|---|---|---|---|---|
| 2026-04-24 15:03 | 35.84858 | 14.49399 | 259 ft | 3 kts | 349° |
| 2026-04-24 15:03 | 35.84839 | 14.49405 | 259 ft | 3 kts | 342° |
| 2026-04-24 15:03 | 35.84820 | 14.49413 | 259 ft | 3 kts | 329° |
| 2026-04-24 15:04 | 35.84807 | 14.49425 | 259 ft | 0 kts | 315° |
| 2026-04-24 15:07 | 35.84809 | 14.49422 | 259 ft | 1 kts | 315° |
| 2026-04-24 15:08 | 35.84818 | 14.49411 | 259 ft | 3 kts | 315° |
| 2026-04-24 15:08 | 35.84835 | 14.49391 | 259 ft | 4 kts | 315° |
| 2026-04-24 15:08 | 35.84859 | 14.49360 | 259 ft | 6 kts | 315° |
| 2026-04-24 15:08 | 35.84892 | 14.49320 | 259 ft | 7 kts | 315° |
| 2026-04-24 15:09 | 35.84929 | 14.49268 | 259 ft | 9 kts | 302° |
| 2026-04-24 15:09 | 35.84927 | 14.49182 | 258 ft | 11 kts | 237° |
| 2026-04-24 15:09 | 35.84902 | 14.49099 | 259 ft | 9 kts | 304° |
| 2026-04-24 15:09 | 35.84949 | 14.49032 | 258 ft | 12 kts | 306° |
| 2026-04-24 15:10 | 35.84984 | 14.48935 | 259 ft | 10 kts | 285° |
| 2026-04-24 15:10 | 35.85004 | 14.48843 | 259 ft | 12 kts | 285° |
| 2026-04-24 15:10 | 35.85026 | 14.48744 | 262 ft | 12 kts | 286° |
| 2026-04-24 15:10 | 35.85056 | 14.48657 | 266 ft | 10 kts | 298° |
| 2026-04-24 15:11 | 35.85050 | 14.48621 | 266 ft | 6 kts | 185° |
| 2026-04-24 15:11 | 35.85034 | 14.48633 | 266 ft | 0 kts | 136° |
| 2026-04-24 15:11 | 35.85017 | 14.48655 | 264 ft | 25 kts | 135° |
| 2026-04-24 15:12 | 35.84692 | 14.49059 | 259 ft | 104 kts | 135° |
| 2026-04-24 15:12 | 35.83217 | 14.50898 | 931 ft | 159 kts | 136° |
| 2026-04-24 15:12 | 35.82206 | 14.51461 | 1589 ft | 168 kts | 177° |
| 2026-04-24 15:13 | 35.81035 | 14.51061 | 1935 ft | 187 kts | 206° |
| 2026-04-24 15:13 | 35.79721 | 14.50553 | 2203 ft | 210 kts | 187° |
| 2026-04-24 15:13 | 35.78249 | 14.50634 | 2678 ft | 217 kts | 162° |
| 2026-04-24 15:13 | 35.76974 | 14.51613 | 3233 ft | 217 kts | 130° |
| 2026-04-24 15:14 | 35.76323 | 14.53250 | 3804 ft | 215 kts | 98° |
| 2026-04-24 15:14 | 35.76454 | 14.55054 | 4396 ft | 212 kts | 68° |
| 2026-04-24 15:14 | 35.77198 | 14.56592 | 5004 ft | 212 kts | 55° |
| 2026-04-24 15:14 | 35.78035 | 14.58121 | 5602 ft | 213 kts | 55° |
| 2026-04-24 15:15 | 35.78876 | 14.59654 | 6012 ft | 225 kts | 54° |
| 2026-04-24 15:15 | 35.79788 | 14.61314 | 6257 ft | 250 kts | 55° |
| 2026-04-24 15:15 | 35.80808 | 14.63174 | 6766 ft | 264 kts | 55° |
| 2026-04-24 15:15 | 35.81826 | 14.65037 | 7462 ft | 268 kts | 54° |
| 2026-04-24 15:16 | 35.82876 | 14.66964 | 8208 ft | 272 kts | 54° |
| 2026-04-24 15:16 | 35.83937 | 14.68918 | 8960 ft | 276 kts | 54° |
| 2026-04-24 15:16 | 35.85015 | 14.70905 | 9716 ft | 280 kts | 54° |
| 2026-04-24 15:16 | 35.86103 | 14.72911 | 10364 ft | 288 kts | 54° |
| 2026-04-24 15:17 | 35.87266 | 14.75048 | 10561 ft | 311 kts | 54° |
| 2026-04-24 15:17 | 35.88514 | 14.77340 | 10785 ft | 331 kts | 54° |
| 2026-04-24 15:17 | 35.89805 | 14.79719 | 11344 ft | 338 kts | 54° |
| 2026-04-24 15:17 | 35.91117 | 14.82145 | 12015 ft | 341 kts | 54° |
| 2026-04-24 15:18 | 35.92443 | 14.84600 | 12695 ft | 345 kts | 54° |
| 2026-04-24 15:18 | 35.93781 | 14.87074 | 13376 ft | 348 kts | 54° |
| 2026-04-24 15:18 | 35.95132 | 14.89569 | 14037 ft | 352 kts | 54° |
| 2026-04-24 15:18 | 35.96496 | 14.92095 | 14625 ft | 356 kts | 54° |
| 2026-04-24 15:19 | 35.97879 | 14.94662 | 15205 ft | 360 kts | 54° |
| 2026-04-24 15:19 | 35.99270 | 14.97249 | 15807 ft | 364 kts | 54° |
| 2026-04-24 15:19 | 36.00682 | 14.99865 | 16396 ft | 368 kts | 53° |
| 2026-04-24 15:19 | 36.02109 | 15.02509 | 16982 ft | 372 kts | 53° |
| 2026-04-24 15:20 | 36.03549 | 15.05183 | 17563 ft | 376 kts | 53° |
| 2026-04-24 15:20 | 36.05007 | 15.07893 | 18142 ft | 380 kts | 53° |
| 2026-04-24 15:20 | 36.06479 | 15.10636 | 18672 ft | 384 kts | 53° |
| 2026-04-24 15:20 | 36.07960 | 15.13397 | 19208 ft | 387 kts | 53° |
| 2026-04-24 15:21 | 36.09452 | 15.16183 | 19760 ft | 390 kts | 53° |
| 2026-04-24 15:21 | 36.10952 | 15.18982 | 20313 ft | 392 kts | 53° |
| 2026-04-24 15:21 | 36.12470 | 15.21818 | 20878 ft | 395 kts | 53° |
| 2026-04-24 15:21 | 36.13987 | 15.24654 | 21438 ft | 397 kts | 53° |
| 2026-04-24 15:22 | 36.15518 | 15.27517 | 21984 ft | 400 kts | 53° |
| 2026-04-24 15:22 | 36.17057 | 15.30400 | 22528 ft | 402 kts | 53° |
| 2026-04-24 15:22 | 36.18602 | 15.33300 | 23034 ft | 405 kts | 53° |
| 2026-04-24 15:23 | 36.21695 | 15.39119 | 23975 ft | 410 kts | 53° |
| 2026-04-24 15:23 | 36.24850 | 15.45049 | 24810 ft | 414 kts | 53° |
| 2026-04-24 15:23 | 36.26435 | 15.48027 | 25222 ft | 416 kts | 53° |
| 2026-04-24 15:24 | 36.31252 | 15.57085 | 26446 ft | 422 kts | 53° |
| 2026-04-24 15:25 | 36.33946 | 15.62179 | 27106 ft | 426 kts | 53° |
| 2026-04-24 15:25 | 36.37757 | 15.69404 | 28026 ft | 430 kts | 53° |
| 2026-04-24 15:26 | 36.42705 | 15.78781 | 29171 ft | 436 kts | 53° |
| 2026-04-24 15:27 | 36.47707 | 15.88303 | 30264 ft | 441 kts | 54° |
| 2026-04-24 15:27 | 36.53151 | 15.97562 | 31246 ft | 442 kts | 48° |
| 2026-04-24 15:28 | 36.60831 | 16.09460 | 32800 ft | 440 kts | 48° |
| 2026-04-24 15:29 | 36.64645 | 16.15392 | 33556 ft | 439 kts | 47° |
| 2026-04-24 15:30 | 36.70335 | 16.24265 | 34572 ft | 438 kts | 48° |
| 2026-04-24 15:31 | 36.77272 | 16.35117 | 35670 ft | 436 kts | 48° |
| 2026-04-24 15:32 | 36.84813 | 16.46942 | 36092 ft | 433 kts | 48° |
| 2026-04-24 15:33 | 36.92298 | 16.58723 | 36092 ft | 432 kts | 48° |
| 2026-04-24 15:34 | 37.01625 | 16.73477 | 36101 ft | 433 kts | 49° |
| 2026-04-24 15:35 | 37.11098 | 16.88038 | 36110 ft | 431 kts | 46° |
| 2026-04-24 15:36 | 37.15090 | 16.93713 | 36109 ft | 431 kts | 46° |
| 2026-04-24 15:36 | 37.20966 | 17.02238 | 36105 ft | 431 kts | 46° |
| 2026-04-24 15:37 | 37.24820 | 17.07934 | 36106 ft | 431 kts | 46° |
| 2026-04-24 15:37 | 37.28710 | 17.13657 | 36102 ft | 430 kts | 46° |
| 2026-04-24 15:38 | 37.32598 | 17.19376 | 36103 ft | 430 kts | 46° |
| 2026-04-24 15:38 | 37.36476 | 17.25097 | 36102 ft | 430 kts | 47° |
| 2026-04-24 15:39 | 37.40341 | 17.30824 | 36098 ft | 429 kts | 47° |
| 2026-04-24 15:39 | 37.44206 | 17.36549 | 36099 ft | 429 kts | 47° |
| 2026-04-24 15:40 | 37.48076 | 17.42276 | 36097 ft | 429 kts | 47° |
| 2026-04-24 15:40 | 37.51934 | 17.47996 | 36094 ft | 428 kts | 47° |
| 2026-04-24 15:41 | 37.55765 | 17.53699 | 36095 ft | 428 kts | 47° |
| 2026-04-24 15:41 | 37.59607 | 17.59434 | 36096 ft | 428 kts | 47° |
| 2026-04-24 15:42 | 37.63455 | 17.65186 | 36096 ft | 428 kts | 47° |
| 2026-04-24 15:42 | 37.67304 | 17.70925 | 36094 ft | 428 kts | 47° |
| 2026-04-24 15:43 | 37.71141 | 17.76663 | 36091 ft | 428 kts | 47° |
| 2026-04-24 15:43 | 37.74975 | 17.82414 | 36091 ft | 427 kts | 47° |
| 2026-04-24 15:44 | 37.78786 | 17.88168 | 36091 ft | 427 kts | 47° |
| 2026-04-24 15:44 | 37.82601 | 17.93925 | 36088 ft | 427 kts | 47° |
| 2026-04-24 15:45 | 37.86426 | 17.99681 | 36086 ft | 426 kts | 47° |
| 2026-04-24 15:45 | 37.90232 | 18.05430 | 36084 ft | 426 kts | 47° |
| 2026-04-24 15:46 | 37.94016 | 18.11146 | 36082 ft | 425 kts | 47° |
| 2026-04-24 15:46 | 37.97809 | 18.16895 | 36078 ft | 425 kts | 47° |
| 2026-04-24 15:47 | 38.01599 | 18.22662 | 36074 ft | 425 kts | 47° |
| 2026-04-24 15:47 | 38.05385 | 18.28425 | 36074 ft | 425 kts | 47° |
| 2026-04-24 15:48 | 38.09169 | 18.34196 | 36077 ft | 426 kts | 47° |
| 2026-04-24 15:48 | 38.12954 | 18.39984 | 36073 ft | 425 kts | 47° |
| 2026-04-24 15:49 | 38.16731 | 18.45772 | 36074 ft | 425 kts | 48° |
| 2026-04-24 15:49 | 38.20504 | 18.51555 | 36073 ft | 425 kts | 47° |
| 2026-04-24 15:50 | 38.24278 | 18.57340 | 36074 ft | 425 kts | 48° |
| 2026-04-24 15:50 | 38.28031 | 18.63116 | 36070 ft | 425 kts | 48° |
| 2026-04-24 15:51 | 38.31803 | 18.68928 | 36073 ft | 425 kts | 48° |
| 2026-04-24 15:51 | 38.35569 | 18.74756 | 36066 ft | 425 kts | 48° |
| 2026-04-24 15:52 | 38.39336 | 18.80575 | 36065 ft | 425 kts | 48° |
| 2026-04-24 15:52 | 38.43086 | 18.86400 | 36066 ft | 425 kts | 48° |
| 2026-04-24 15:53 | 38.46842 | 18.92230 | 36065 ft | 425 kts | 48° |
| 2026-04-24 15:53 | 38.50593 | 18.98067 | 36065 ft | 425 kts | 48° |
| 2026-04-24 15:54 | 38.54767 | 19.03306 | 36062 ft | 422 kts | 40° |
| 2026-04-24 15:54 | 38.59165 | 19.08284 | 36056 ft | 422 kts | 40° |
| 2026-04-24 15:55 | 38.63551 | 19.13280 | 36056 ft | 422 kts | 40° |
| 2026-04-24 15:55 | 38.67943 | 19.18289 | 36057 ft | 422 kts | 40° |
| 2026-04-24 15:56 | 38.72334 | 19.23292 | 36053 ft | 422 kts | 40° |
| 2026-04-24 15:56 | 38.76713 | 19.28299 | 36053 ft | 422 kts | 40° |
| 2026-04-24 15:57 | 38.81090 | 19.33314 | 36038 ft | 422 kts | 40° |
| 2026-04-24 15:57 | 38.85474 | 19.38336 | 36051 ft | 422 kts | 40° |
| 2026-04-24 15:58 | 38.89841 | 19.43351 | 36042 ft | 422 kts | 40° |
| 2026-04-24 15:58 | 38.94213 | 19.48382 | 36038 ft | 422 kts | 40° |
| 2026-04-24 15:59 | 38.98586 | 19.53421 | 36036 ft | 422 kts | 41° |
| 2026-04-24 15:59 | 39.02947 | 19.58460 | 36043 ft | 421 kts | 41° |
| 2026-04-24 16:00 | 39.07311 | 19.63503 | 36044 ft | 421 kts | 41° |
| 2026-04-24 16:00 | 39.11665 | 19.68546 | 36020 ft | 421 kts | 41° |
| 2026-04-24 16:01 | 39.16024 | 19.73598 | 36036 ft | 422 kts | 41° |
| 2026-04-24 16:01 | 39.20350 | 19.78626 | 36028 ft | 421 kts | 41° |
| 2026-04-24 16:02 | 39.24699 | 19.83701 | 36012 ft | 421 kts | 41° |
| 2026-04-24 16:02 | 39.28308 | 19.87911 | 35993 ft | 420 kts | 41° |
| 2026-04-24 16:03 | 39.31558 | 19.91707 | 35998 ft | 419 kts | 43° |
| 2026-04-24 16:04 | 39.35811 | 19.96768 | 35995 ft | 419 kts | 41° |
| 2026-04-24 16:04 | 39.40164 | 20.01806 | 36004 ft | 420 kts | 41° |
| 2026-04-24 16:05 | 39.46676 | 20.09388 | 36006 ft | 420 kts | 42° |
| 2026-04-24 16:06 | 39.53156 | 20.17040 | 36011 ft | 420 kts | 42° |
| 2026-04-24 16:07 | 39.59640 | 20.24698 | 36006 ft | 420 kts | 42° |
| 2026-04-24 16:07 | 39.66114 | 20.32369 | 35997 ft | 420 kts | 42° |
| 2026-04-24 16:08 | 39.72587 | 20.40051 | 35998 ft | 420 kts | 42° |
| 2026-04-24 16:09 | 39.79067 | 20.47739 | 35995 ft | 420 kts | 42° |
| 2026-04-24 16:09 | 39.83368 | 20.52872 | 35997 ft | 420 kts | 43° |
| 2026-04-24 16:11 | 39.94098 | 20.65717 | 35992 ft | 419 kts | 43° |
| 2026-04-24 16:11 | 39.98388 | 20.70855 | 35996 ft | 418 kts | 43° |
| 2026-04-24 16:12 | 40.04808 | 20.78581 | 35769 ft | 418 kts | 43° |
| 2026-04-24 16:12 | 40.09066 | 20.83715 | 35285 ft | 416 kts | 43° |
| 2026-04-24 16:13 | 40.10472 | 20.85413 | 35132 ft | 415 kts | 43° |
| 2026-04-24 16:13 | 40.14704 | 20.90524 | 34639 ft | 413 kts | 44° |
| 2026-04-24 16:14 | 40.18903 | 20.95609 | 34170 ft | 411 kts | 44° |
| 2026-04-24 16:14 | 40.21681 | 20.98979 | 33838 ft | 411 kts | 44° |
| 2026-04-24 16:14 | 40.25181 | 21.03222 | 33381 ft | 407 kts | 44° |
| 2026-04-24 16:15 | 40.26552 | 21.04884 | 33201 ft | 405 kts | 44° |
| 2026-04-24 16:15 | 40.31310 | 21.10672 | 32584 ft | 398 kts | 45° |
| 2026-04-24 16:16 | 40.35344 | 21.15592 | 32058 ft | 392 kts | 45° |
| 2026-04-24 16:16 | 40.37329 | 21.18011 | 31662 ft | 387 kts | 45° |
| 2026-04-24 16:17 | 40.43223 | 21.24983 | 30320 ft | 376 kts | 39° |
| 2026-04-24 16:17 | 40.47931 | 21.27949 | 29354 ft | 378 kts | 20° |
| 2026-04-24 16:18 | 40.53118 | 21.29086 | 28411 ft | 375 kts | 14° |
| 2026-04-24 16:18 | 40.58228 | 21.30064 | 27516 ft | 367 kts | 14° |
| 2026-04-24 16:18 | 40.60752 | 21.30555 | 27066 ft | 365 kts | 14° |
| 2026-04-24 16:19 | 40.65738 | 21.31530 | 26216 ft | 360 kts | 13° |
| 2026-04-24 16:19 | 40.68172 | 21.32006 | 25827 ft | 358 kts | 13° |
| 2026-04-24 16:20 | 40.73066 | 21.32960 | 25023 ft | 354 kts | 13° |
| 2026-04-24 16:20 | 40.77918 | 21.33913 | 24229 ft | 350 kts | 13° |
| 2026-04-24 16:20 | 40.80322 | 21.34385 | 23834 ft | 348 kts | 12° |
| 2026-04-24 16:21 | 40.85072 | 21.35317 | 22994 ft | 342 kts | 12° |
| 2026-04-24 16:21 | 40.87416 | 21.35777 | 22594 ft | 338 kts | 12° |
| 2026-04-24 16:21 | 40.89729 | 21.36231 | 22191 ft | 334 kts | 12° |
| 2026-04-24 16:22 | 40.92019 | 21.36676 | 21797 ft | 331 kts | 12° |
| 2026-04-24 16:22 | 40.96530 | 21.37556 | 20994 ft | 325 kts | 12° |
| 2026-04-24 16:22 | 40.98758 | 21.37991 | 20570 ft | 323 kts | 12° |
| 2026-04-24 16:23 | 41.00973 | 21.38424 | 20174 ft | 320 kts | 11° |
| 2026-04-24 16:23 | 41.03168 | 21.38854 | 19763 ft | 318 kts | 11° |
| 2026-04-24 16:23 | 41.05353 | 21.39284 | 19355 ft | 317 kts | 11° |
| 2026-04-24 16:24 | 41.09699 | 21.40136 | 18530 ft | 315 kts | 11° |
| 2026-04-24 16:24 | 41.11864 | 21.40556 | 18099 ft | 314 kts | 10° |
| 2026-04-24 16:24 | 41.14015 | 21.40976 | 17674 ft | 312 kts | 10° |
| 2026-04-24 16:24 | 41.16150 | 21.41395 | 17262 ft | 309 kts | 10° |
| 2026-04-24 16:25 | 41.18280 | 21.41815 | 16859 ft | 307 kts | 10° |
| 2026-04-24 16:25 | 41.20380 | 21.42229 | 16456 ft | 305 kts | 10° |
| 2026-04-24 16:25 | 41.22475 | 21.42640 | 16053 ft | 303 kts | 10° |
| 2026-04-24 16:26 | 41.26626 | 21.43451 | 15258 ft | 300 kts | 10° |
| 2026-04-24 16:26 | 41.28692 | 21.43856 | 14866 ft | 299 kts | 9° |
| 2026-04-24 16:26 | 41.32776 | 21.44822 | 14080 ft | 296 kts | 19° |
| 2026-04-24 16:27 | 41.34627 | 21.45924 | 13680 ft | 295 kts | 31° |
| 2026-04-24 16:27 | 41.36282 | 21.47532 | 13256 ft | 294 kts | 38° |
| 2026-04-24 16:27 | 41.37864 | 21.49235 | 12873 ft | 292 kts | 38° |
| 2026-04-24 16:27 | 41.39441 | 21.50923 | 12486 ft | 290 kts | 38° |
| 2026-04-24 16:28 | 41.41012 | 21.52601 | 12091 ft | 288 kts | 38° |
| 2026-04-24 16:28 | 41.42573 | 21.54265 | 11725 ft | 287 kts | 38° |
| 2026-04-24 16:28 | 41.45682 | 21.57582 | 10974 ft | 285 kts | 38° |
| 2026-04-24 16:29 | 41.47225 | 21.59230 | 10597 ft | 283 kts | 38° |
| 2026-04-24 16:29 | 41.48760 | 21.60874 | 10251 ft | 281 kts | 38° |
| 2026-04-24 16:29 | 41.51780 | 21.64114 | 10056 ft | 278 kts | 37° |
| 2026-04-24 16:30 | 41.54820 | 21.67384 | 9366 ft | 281 kts | 38° |
| 2026-04-24 16:30 | 41.56331 | 21.69010 | 9057 ft | 278 kts | 37° |
| 2026-04-24 16:30 | 41.57537 | 21.70304 | 8734 ft | 277 kts | 37° |
| 2026-04-24 16:31 | 41.59071 | 21.71937 | 8367 ft | 275 kts | 34° |
| 2026-04-24 16:31 | 41.60752 | 21.73107 | 7955 ft | 273 kts | 17° |
| 2026-04-24 16:31 | 41.62629 | 21.73512 | 7449 ft | 276 kts | 359° |
| 2026-04-24 16:31 | 41.64512 | 21.73107 | 7167 ft | 271 kts | 346° |
| 2026-04-24 16:32 | 41.66313 | 21.72484 | 6982 ft | 264 kts | 346° |
| 2026-04-24 16:32 | 41.68067 | 21.71878 | 6720 ft | 258 kts | 346° |
| 2026-04-24 16:32 | 41.69808 | 21.71278 | 6373 ft | 258 kts | 346° |
| 2026-04-24 16:32 | 41.71517 | 21.70688 | 5981 ft | 247 kts | 346° |
| 2026-04-24 16:33 | 41.73125 | 21.70132 | 5627 ft | 232 kts | 346° |
| 2026-04-24 16:33 | 41.74645 | 21.69607 | 5301 ft | 222 kts | 346° |
| 2026-04-24 16:33 | 41.76130 | 21.69094 | 5011 ft | 217 kts | 346° |
| 2026-04-24 16:33 | 41.77576 | 21.68594 | 4666 ft | 213 kts | 346° |
| 2026-04-24 16:34 | 41.78968 | 21.68112 | 4356 ft | 204 kts | 346° |
| 2026-04-24 16:34 | 41.80310 | 21.67647 | 4065 ft | 189 kts | 346° |
| 2026-04-24 16:34 | 41.81539 | 21.67222 | 3779 ft | 176 kts | 346° |
| 2026-04-24 16:34 | 41.82695 | 21.66821 | 3528 ft | 170 kts | 345° |
| 2026-04-24 16:35 | 41.83836 | 21.66425 | 3277 ft | 168 kts | 346° |
| 2026-04-24 16:35 | 41.84952 | 21.66039 | 3041 ft | 167 kts | 345° |
| 2026-04-24 16:35 | 41.86071 | 21.65650 | 2792 ft | 166 kts | 346° |
| 2026-04-24 16:35 | 41.87191 | 21.65262 | 2554 ft | 166 kts | 345° |
| 2026-04-24 16:36 | 41.88314 | 21.64872 | 2318 ft | 166 kts | 345° |
| 2026-04-24 16:36 | 41.89452 | 21.64477 | 2073 ft | 169 kts | 345° |
| 2026-04-24 16:36 | 41.90529 | 21.64103 | 1818 ft | 153 kts | 345° |
| 2026-04-24 16:36 | 41.91538 | 21.63753 | 1603 ft | 147 kts | 345° |
| 2026-04-24 16:37 | 41.92507 | 21.63410 | 1402 ft | 141 kts | 345° |
| 2026-04-24 16:37 | 41.93453 | 21.63091 | 1159 ft | 137 kts | 346° |
| 2026-04-24 16:37 | 41.94062 | 21.62879 | 1033 ft | 137 kts | 346° |
| 2026-04-24 16:37 | 41.95292 | 21.62444 | 799 ft | 135 kts | 346° |
| 2026-04-24 16:38 | 41.96091 | 21.62170 | 788 ft | 96 kts | 345° |
| 2026-04-24 16:38 | 41.96569 | 21.62003 | 791 ft | 46 kts | 345° |
| 2026-04-24 16:38 | 41.96826 | 21.61914 | 792 ft | 34 kts | 344° |
| 2026-04-24 16:38 | 41.96968 | 21.61865 | 789 ft | 14 kts | 358° |
| 2026-04-24 16:39 | 41.96996 | 21.61960 | 790 ft | 13 kts | 123° |
| 2026-04-24 16:39 | 41.96938 | 21.62055 | 792 ft | 14 kts | 129° |
| 2026-04-24 16:39 | 41.96875 | 21.62152 | 793 ft | 14 kts | 146° |
| 2026-04-24 16:39 | 41.96792 | 21.62189 | 794 ft | 11 kts | 164° |
| 2026-04-24 16:40 | 41.96710 | 21.62218 | 793 ft | 13 kts | 166° |
| 2026-04-24 16:40 | 41.96615 | 21.62251 | 793 ft | 15 kts | 166° |
| 2026-04-24 16:40 | 41.96507 | 21.62287 | 793 ft | 17 kts | 166° |
| 2026-04-24 16:40 | 41.96390 | 21.62331 | 792 ft | 18 kts | 165° |
| 2026-04-24 16:41 | 41.96269 | 21.62374 | 792 ft | 15 kts | 165° |
| 2026-04-24 16:41 | 41.96166 | 21.62410 | 791 ft | 11 kts | 165° |
| 2026-04-24 16:41 | 41.96123 | 21.62451 | 792 ft | 6 kts | 91° |
| 2026-04-24 16:41 | 41.96122 | 21.62503 | 793 ft | 7 kts | 124° |
| 2026-04-24 16:42 | 41.96065 | 21.62525 | 793 ft | 10 kts | 166° |
| 2026-04-24 16:42 | 41.96029 | 21.62541 | 793 ft | 5 kts | 142° |
| 2026-04-24 16:42 | 41.96028 | 21.62585 | 793 ft | 2 kts | 75° |
| 2026-04-24 16:42 | 41.96032 | 21.62600 | 793 ft | 1 kts | 75° |
| 2026-04-24 16:43 | 41.96032 | 21.62602 | 793 ft | 0 kts | 75° |